sensor_id;sensor_type;location;lat;lon;timestamp;P1;durP1;ratioP1;P2;durP2;ratioP2
13571;SDS011;6857;53.484;10.216;2022-11-04T00:01:39;7.53;;;4.03;;
13571;SDS011;6857;53.484;10.216;2022-11-04T00:04:06;7.10;;;3.87;;
13571;SDS011;6857;53.484;10.216;2022-11-04T00:06:32;5.93;;;3.83;;
13571;SDS011;6857;53.484;10.216;2022-11-04T00:08:58;9.83;;;4.20;;
13571;SDS011;6857;53.484;10.216;2022-11-04T00:11:25;4.43;;;3.70;;
13571;SDS011;6857;53.484;10.216;2022-11-04T00:14:10;6.33;;;4.20;;
13571;SDS011;6857;53.484;10.216;2022-11-04T00:16:37;7.03;;;3.73;;
13571;SDS011;6857;53.484;10.216;2022-11-04T00:19:21;7.93;;;3.90;;
13571;SDS011;6857;53.484;10.216;2022-11-04T00:21:47;8.03;;;3.97;;
13571;SDS011;6857;53.484;10.216;2022-11-04T00:24:32;6.07;;;3.93;;
13571;SDS011;6857;53.484;10.216;2022-11-04T00:27:10;7.90;;;3.90;;
13571;SDS011;6857;53.484;10.216;2022-11-04T00:29:55;9.33;;;4.60;;
13571;SDS011;6857;53.484;10.216;2022-11-04T00:32:20;9.07;;;4.30;;
13571;SDS011;6857;53.484;10.216;2022-11-04T00:35:05;8.77;;;4.07;;
13571;SDS011;6857;53.484;10.216;2022-11-04T00:37:31;8.73;;;4.37;;
13571;SDS011;6857;53.484;10.216;2022-11-04T00:39:59;6.70;;;4.27;;
13571;SDS011;6857;53.484;10.216;2022-11-04T00:42:25;10.57;;;4.30;;
13571;SDS011;6857;53.484;10.216;2022-11-04T00:44:50;11.03;;;5.50;;
13571;SDS011;6857;53.484;10.216;2022-11-04T00:47:16;9.20;;;4.70;;
13571;SDS011;6857;53.484;10.216;2022-11-04T00:49:41;14.47;;;4.83;;
13571;SDS011;6857;53.484;10.216;2022-11-04T00:52:07;7.07;;;4.10;;
13571;SDS011;6857;53.484;10.216;2022-11-04T00:54:32;8.63;;;4.50;;
13571;SDS011;6857;53.484;10.216;2022-11-04T00:56:58;9.67;;;4.67;;
13571;SDS011;6857;53.484;10.216;2022-11-04T00:59:23;7.67;;;4.10;;
13571;SDS011;6857;53.484;10.216;2022-11-04T01:01:49;5.70;;;3.83;;
13571;SDS011;6857;53.484;10.216;2022-11-04T01:04:14;8.10;;;4.57;;
13571;SDS011;6857;53.484;10.216;2022-11-04T01:06:40;8.50;;;4.50;;
13571;SDS011;6857;53.484;10.216;2022-11-04T01:09:06;9.87;;;4.50;;
13571;SDS011;6857;53.484;10.216;2022-11-04T01:11:34;8.30;;;4.27;;
13571;SDS011;6857;53.484;10.216;2022-11-04T01:14:00;10.37;;;4.67;;
13571;SDS011;6857;53.484;10.216;2022-11-04T01:16:26;9.77;;;5.10;;
13571;SDS011;6857;53.484;10.216;2022-11-04T01:18:52;7.63;;;4.47;;
13571;SDS011;6857;53.484;10.216;2022-11-04T01:21:17;7.90;;;3.97;;
13571;SDS011;6857;53.484;10.216;2022-11-04T01:23:44;7.77;;;4.63;;
13571;SDS011;6857;53.484;10.216;2022-11-04T01:26:17;8.63;;;4.60;;
13571;SDS011;6857;53.484;10.216;2022-11-04T01:28:45;6.83;;;4.43;;
13571;SDS011;6857;53.484;10.216;2022-11-04T01:31:12;7.27;;;4.63;;
13571;SDS011;6857;53.484;10.216;2022-11-04T01:33:39;6.53;;;4.30;;
13571;SDS011;6857;53.484;10.216;2022-11-04T01:36:06;8.50;;;4.87;;
13571;SDS011;6857;53.484;10.216;2022-11-04T01:38:32;7.70;;;4.67;;
13571;SDS011;6857;53.484;10.216;2022-11-04T01:40:58;10.33;;;5.30;;
13571;SDS011;6857;53.484;10.216;2022-11-04T01:46:21;7.57;;;4.83;;
13571;SDS011;6857;53.484;10.216;2022-11-04T01:49:00;7.27;;;4.67;;
13571;SDS011;6857;53.484;10.216;2022-11-04T01:51:36;11.57;;;4.70;;
13571;SDS011;6857;53.484;10.216;2022-11-04T01:54:06;8.83;;;4.43;;
13571;SDS011;6857;53.484;10.216;2022-11-04T01:56:33;9.27;;;4.40;;
13571;SDS011;6857;53.484;10.216;2022-11-04T01:59:01;7.87;;;5.07;;
13571;SDS011;6857;53.484;10.216;2022-11-04T02:01:29;8.60;;;4.23;;
13571;SDS011;6857;53.484;10.216;2022-11-04T02:03:57;11.60;;;4.50;;
13571;SDS011;6857;53.484;10.216;2022-11-04T02:06:42;11.03;;;5.03;;
13571;SDS011;6857;53.484;10.216;2022-11-04T02:09:10;9.53;;;4.70;;
13571;SDS011;6857;53.484;10.216;2022-11-04T02:11:36;10.47;;;4.47;;
13571;SDS011;6857;53.484;10.216;2022-11-04T02:14:20;9.50;;;4.97;;
13571;SDS011;6857;53.484;10.216;2022-11-04T02:16:46;8.43;;;4.93;;
13571;SDS011;6857;53.484;10.216;2022-11-04T02:22:18;8.40;;;5.17;;
13571;SDS011;6857;53.484;10.216;2022-11-04T02:30:18;7.63;;;4.63;;
13571;SDS011;6857;53.484;10.216;2022-11-04T02:43:37;10.97;;;5.40;;
13571;SDS011;6857;53.484;10.216;2022-11-04T02:48:38;10.10;;;5.53;;
13571;SDS011;6857;53.484;10.216;2022-11-04T02:51:10;6.80;;;5.10;;
13571;SDS011;6857;53.484;10.216;2022-11-04T02:53:46;7.10;;;5.30;;
13571;SDS011;6857;53.484;10.216;2022-11-04T02:56:16;9.83;;;4.93;;
13571;SDS011;6857;53.484;10.216;2022-11-04T02:59:00;7.37;;;5.37;;
13571;SDS011;6857;53.484;10.216;2022-11-04T03:01:31;6.77;;;4.30;;
13571;SDS011;6857;53.484;10.216;2022-11-04T03:04:01;8.77;;;5.47;;
13571;SDS011;6857;53.484;10.216;2022-11-04T03:06:32;6.53;;;5.40;;
13571;SDS011;6857;53.484;10.216;2022-11-04T03:09:00;8.97;;;5.50;;
13571;SDS011;6857;53.484;10.216;2022-11-04T03:11:28;9.17;;;4.60;;
13571;SDS011;6857;53.484;10.216;2022-11-04T03:13:58;8.27;;;4.83;;
13571;SDS011;6857;53.484;10.216;2022-11-04T03:19:13;7.83;;;5.43;;
13571;SDS011;6857;53.484;10.216;2022-11-04T03:22:03;7.80;;;5.57;;
13571;SDS011;6857;53.484;10.216;2022-11-04T03:24:33;7.67;;;6.00;;
13571;SDS011;6857;53.484;10.216;2022-11-04T03:27:24;11.00;;;6.30;;
13571;SDS011;6857;53.484;10.216;2022-11-04T03:30:11;8.73;;;6.33;;
13571;SDS011;6857;53.484;10.216;2022-11-04T03:32:53;10.67;;;6.63;;
13571;SDS011;6857;53.484;10.216;2022-11-04T03:35:29;12.47;;;6.70;;
13571;SDS011;6857;53.484;10.216;2022-11-04T03:37:56;10.80;;;6.37;;
13571;SDS011;6857;53.484;10.216;2022-11-04T03:40:22;12.63;;;6.73;;
13571;SDS011;6857;53.484;10.216;2022-11-04T03:42:52;7.83;;;6.70;;
13571;SDS011;6857;53.484;10.216;2022-11-04T03:45:21;11.60;;;6.93;;
13571;SDS011;6857;53.484;10.216;2022-11-04T03:47:47;12.13;;;7.63;;
13571;SDS011;6857;53.484;10.216;2022-11-04T03:50:22;13.23;;;7.33;;
13571;SDS011;6857;53.484;10.216;2022-11-04T03:52:55;11.43;;;7.60;;
13571;SDS011;6857;53.484;10.216;2022-11-04T03:55:45;11.40;;;7.37;;
13571;SDS011;6857;53.484;10.216;2022-11-04T03:58:22;10.27;;;8.20;;
13571;SDS011;6857;53.484;10.216;2022-11-04T04:00:59;10.40;;;7.60;;
13571;SDS011;6857;53.484;10.216;2022-11-04T04:03:38;12.60;;;8.03;;
13571;SDS011;6857;53.484;10.216;2022-11-04T04:06:14;11.60;;;8.30;;
13571;SDS011;6857;53.484;10.216;2022-11-04T04:08:43;12.20;;;7.63;;
13571;SDS011;6857;53.484;10.216;2022-11-04T04:14:12;13.93;;;8.33;;
13571;SDS011;6857;53.484;10.216;2022-11-04T04:17:10;18.87;;;9.13;;
13571;SDS011;6857;53.484;10.216;2022-11-04T04:19:38;11.33;;;8.23;;
13571;SDS011;6857;53.484;10.216;2022-11-04T04:22:10;10.77;;;8.47;;
13571;SDS011;6857;53.484;10.216;2022-11-04T04:24:43;11.13;;;8.40;;
13571;SDS011;6857;53.484;10.216;2022-11-04T04:27:30;11.63;;;8.00;;
13571;SDS011;6857;53.484;10.216;2022-11-04T04:30:05;11.73;;;7.90;;
13571;SDS011;6857;53.484;10.216;2022-11-04T04:32:50;13.03;;;7.93;;
13571;SDS011;6857;53.484;10.216;2022-11-04T04:35:21;15.63;;;8.60;;
13571;SDS011;6857;53.484;10.216;2022-11-04T04:38:07;10.87;;;7.90;;
13571;SDS011;6857;53.484;10.216;2022-11-04T04:43:58;10.90;;;8.43;;
13571;SDS011;6857;53.484;10.216;2022-11-04T04:46:43;13.33;;;8.70;;
13571;SDS011;6857;53.484;10.216;2022-11-04T04:49:11;10.77;;;7.87;;
13571;SDS011;6857;53.484;10.216;2022-11-04T04:51:38;13.57;;;7.97;;
13571;SDS011;6857;53.484;10.216;2022-11-04T04:54:07;10.50;;;7.67;;
13571;SDS011;6857;53.484;10.216;2022-11-04T04:56:32;10.50;;;7.40;;
13571;SDS011;6857;53.484;10.216;2022-11-04T04:58:58;10.73;;;7.57;;
13571;SDS011;6857;53.484;10.216;2022-11-04T05:01:24;13.83;;;8.07;;
13571;SDS011;6857;53.484;10.216;2022-11-04T05:03:49;9.53;;;7.23;;
13571;SDS011;6857;53.484;10.216;2022-11-04T05:06:17;8.23;;;6.63;;
13571;SDS011;6857;53.484;10.216;2022-11-04T05:08:43;10.40;;;6.43;;
13571;SDS011;6857;53.484;10.216;2022-11-04T05:11:08;7.97;;;6.33;;
13571;SDS011;6857;53.484;10.216;2022-11-04T05:13:34;8.63;;;6.17;;
13571;SDS011;6857;53.484;10.216;2022-11-04T05:16:04;8.37;;;6.27;;
13571;SDS011;6857;53.484;10.216;2022-11-04T05:18:31;6.20;;;5.13;;
13571;SDS011;6857;53.484;10.216;2022-11-04T05:20:57;8.43;;;5.50;;
13571;SDS011;6857;53.484;10.216;2022-11-04T05:23:26;8.07;;;5.70;;
13571;SDS011;6857;53.484;10.216;2022-11-04T05:25:52;7.60;;;5.60;;
13571;SDS011;6857;53.484;10.216;2022-11-04T05:28:17;8.03;;;5.27;;
13571;SDS011;6857;53.484;10.216;2022-11-04T05:30:43;6.50;;;4.70;;
13571;SDS011;6857;53.484;10.216;2022-11-04T05:33:08;7.87;;;4.90;;
13571;SDS011;6857;53.484;10.216;2022-11-04T05:35:34;5.20;;;4.33;;
13571;SDS011;6857;53.484;10.216;2022-11-04T05:37:59;5.97;;;4.23;;
13571;SDS011;6857;53.484;10.216;2022-11-04T05:40:25;6.37;;;4.20;;
13571;SDS011;6857;53.484;10.216;2022-11-04T05:42:51;6.13;;;4.37;;
13571;SDS011;6857;53.484;10.216;2022-11-04T05:45:16;5.53;;;4.23;;
13571;SDS011;6857;53.484;10.216;2022-11-04T05:47:42;5.80;;;3.70;;
13571;SDS011;6857;53.484;10.216;2022-11-04T05:50:07;4.20;;;3.57;;
13571;SDS011;6857;53.484;10.216;2022-11-04T05:52:33;5.73;;;3.53;;
13571;SDS011;6857;53.484;10.216;2022-11-04T05:54:59;5.70;;;3.60;;
13571;SDS011;6857;53.484;10.216;2022-11-04T05:57:24;3.93;;;2.90;;
13571;SDS011;6857;53.484;10.216;2022-11-04T05:59:50;4.90;;;3.20;;
13571;SDS011;6857;53.484;10.216;2022-11-04T06:02:15;4.10;;;3.33;;
13571;SDS011;6857;53.484;10.216;2022-11-04T06:04:41;5.33;;;3.03;;
13571;SDS011;6857;53.484;10.216;2022-11-04T06:07:07;3.20;;;2.90;;
13571;SDS011;6857;53.484;10.216;2022-11-04T06:09:33;4.57;;;2.90;;
13571;SDS011;6857;53.484;10.216;2022-11-04T06:12:05;4.17;;;3.27;;
13571;SDS011;6857;53.484;10.216;2022-11-04T06:14:44;3.27;;;2.90;;
13571;SDS011;6857;53.484;10.216;2022-11-04T06:17:13;4.23;;;3.50;;
13571;SDS011;6857;53.484;10.216;2022-11-04T06:19:40;3.47;;;2.90;;
13571;SDS011;6857;53.484;10.216;2022-11-04T06:22:05;3.67;;;3.27;;
13571;SDS011;6857;53.484;10.216;2022-11-04T06:24:32;4.40;;;3.10;;
13571;SDS011;6857;53.484;10.216;2022-11-04T06:26:57;5.47;;;2.70;;
13571;SDS011;6857;53.484;10.216;2022-11-04T06:29:23;3.87;;;2.40;;
13571;SDS011;6857;53.484;10.216;2022-11-04T06:31:49;5.13;;;2.63;;
13571;SDS011;6857;53.484;10.216;2022-11-04T06:34:15;2.70;;;2.50;;
13571;SDS011;6857;53.484;10.216;2022-11-04T06:36:40;6.33;;;2.83;;
13571;SDS011;6857;53.484;10.216;2022-11-04T06:39:06;4.27;;;3.10;;
13571;SDS011;6857;53.484;10.216;2022-11-04T06:41:32;4.30;;;3.70;;
13571;SDS011;6857;53.484;10.216;2022-11-04T06:43:57;4.23;;;3.10;;
13571;SDS011;6857;53.484;10.216;2022-11-04T06:46:24;3.67;;;3.00;;
13571;SDS011;6857;53.484;10.216;2022-11-04T06:49:01;4.77;;;3.40;;
13571;SDS011;6857;53.484;10.216;2022-11-04T06:51:27;4.10;;;3.43;;
13571;SDS011;6857;53.484;10.216;2022-11-04T06:53:53;6.37;;;4.93;;
13571;SDS011;6857;53.484;10.216;2022-11-04T06:56:19;6.97;;;5.33;;
13571;SDS011;6857;53.484;10.216;2022-11-04T06:58:48;4.37;;;3.47;;
13571;SDS011;6857;53.484;10.216;2022-11-04T07:01:15;3.97;;;3.33;;
13571;SDS011;6857;53.484;10.216;2022-11-04T07:03:42;4.30;;;3.10;;
13571;SDS011;6857;53.484;10.216;2022-11-04T07:06:08;5.67;;;4.30;;
13571;SDS011;6857;53.484;10.216;2022-11-04T07:08:35;5.00;;;4.20;;
13571;SDS011;6857;53.484;10.216;2022-11-04T07:11:01;6.27;;;5.03;;
13571;SDS011;6857;53.484;10.216;2022-11-04T07:13:27;6.07;;;4.57;;
13571;SDS011;6857;53.484;10.216;2022-11-04T07:15:53;4.90;;;3.40;;
13571;SDS011;6857;53.484;10.216;2022-11-04T07:18:18;5.17;;;3.70;;
13571;SDS011;6857;53.484;10.216;2022-11-04T07:20:44;5.40;;;4.20;;
13571;SDS011;6857;53.484;10.216;2022-11-04T07:23:09;8.33;;;6.53;;
13571;SDS011;6857;53.484;10.216;2022-11-04T07:25:35;5.13;;;3.90;;
13571;SDS011;6857;53.484;10.216;2022-11-04T07:28:00;7.87;;;4.60;;
13571;SDS011;6857;53.484;10.216;2022-11-04T07:30:26;4.93;;;4.17;;
13571;SDS011;6857;53.484;10.216;2022-11-04T07:32:52;5.00;;;4.00;;
13571;SDS011;6857;53.484;10.216;2022-11-04T07:35:17;6.67;;;5.10;;
13571;SDS011;6857;53.484;10.216;2022-11-04T07:37:43;7.13;;;4.90;;
13571;SDS011;6857;53.484;10.216;2022-11-04T07:40:09;5.20;;;4.17;;
13571;SDS011;6857;53.484;10.216;2022-11-04T07:42:35;7.30;;;5.30;;
13571;SDS011;6857;53.484;10.216;2022-11-04T07:45:01;8.73;;;5.53;;
13571;SDS011;6857;53.484;10.216;2022-11-04T07:47:29;6.97;;;4.17;;
13571;SDS011;6857;53.484;10.216;2022-11-04T07:49:55;5.37;;;4.10;;
13571;SDS011;6857;53.484;10.216;2022-11-04T07:52:21;9.23;;;6.57;;
13571;SDS011;6857;53.484;10.216;2022-11-04T07:54:47;4.90;;;4.40;;
13571;SDS011;6857;53.484;10.216;2022-11-04T07:57:13;5.50;;;4.10;;
13571;SDS011;6857;53.484;10.216;2022-11-04T07:59:39;4.77;;;4.30;;
13571;SDS011;6857;53.484;10.216;2022-11-04T08:02:04;6.63;;;4.50;;
13571;SDS011;6857;53.484;10.216;2022-11-04T08:04:30;5.13;;;4.43;;
13571;SDS011;6857;53.484;10.216;2022-11-04T08:06:56;6.47;;;5.27;;
13571;SDS011;6857;53.484;10.216;2022-11-04T08:09:21;5.73;;;5.13;;
13571;SDS011;6857;53.484;10.216;2022-11-04T08:11:47;6.13;;;4.57;;
13571;SDS011;6857;53.484;10.216;2022-11-04T08:14:13;5.17;;;4.53;;
13571;SDS011;6857;53.484;10.216;2022-11-04T08:16:38;6.73;;;4.77;;
13571;SDS011;6857;53.484;10.216;2022-11-04T08:19:04;10.30;;;5.83;;
13571;SDS011;6857;53.484;10.216;2022-11-04T08:21:30;7.33;;;5.07;;
13571;SDS011;6857;53.484;10.216;2022-11-04T08:23:57;5.43;;;4.67;;
13571;SDS011;6857;53.484;10.216;2022-11-04T08:26:22;7.07;;;5.27;;
13571;SDS011;6857;53.484;10.216;2022-11-04T08:28:49;7.30;;;4.50;;
13571;SDS011;6857;53.484;10.216;2022-11-04T08:31:17;6.17;;;4.97;;
13571;SDS011;6857;53.484;10.216;2022-11-04T08:33:45;11.23;;;8.30;;
13571;SDS011;6857;53.484;10.216;2022-11-04T08:36:13;5.23;;;4.73;;
13571;SDS011;6857;53.484;10.216;2022-11-04T08:38:41;6.43;;;4.27;;
13571;SDS011;6857;53.484;10.216;2022-11-04T08:41:07;5.90;;;4.83;;
13571;SDS011;6857;53.484;10.216;2022-11-04T08:43:34;6.47;;;5.47;;
13571;SDS011;6857;53.484;10.216;2022-11-04T08:46:00;5.57;;;4.37;;
13571;SDS011;6857;53.484;10.216;2022-11-04T08:48:28;5.87;;;4.80;;
13571;SDS011;6857;53.484;10.216;2022-11-04T08:50:55;5.50;;;4.60;;
13571;SDS011;6857;53.484;10.216;2022-11-04T08:53:22;4.53;;;4.03;;
13571;SDS011;6857;53.484;10.216;2022-11-04T08:55:48;5.10;;;4.60;;
13571;SDS011;6857;53.484;10.216;2022-11-04T08:58:14;5.90;;;5.30;;
13571;SDS011;6857;53.484;10.216;2022-11-04T09:00:41;7.97;;;5.23;;
13571;SDS011;6857;53.484;10.216;2022-11-04T09:03:07;6.27;;;4.57;;
13571;SDS011;6857;53.484;10.216;2022-11-04T09:05:32;5.23;;;4.73;;
13571;SDS011;6857;53.484;10.216;2022-11-04T09:08:00;4.43;;;4.03;;
13571;SDS011;6857;53.484;10.216;2022-11-04T09:10:25;6.77;;;4.67;;
13571;SDS011;6857;53.484;10.216;2022-11-04T09:12:51;5.53;;;3.97;;
13571;SDS011;6857;53.484;10.216;2022-11-04T09:15:17;5.50;;;4.40;;
13571;SDS011;6857;53.484;10.216;2022-11-04T09:17:42;5.50;;;4.20;;
13571;SDS011;6857;53.484;10.216;2022-11-04T09:20:08;5.90;;;4.10;;
13571;SDS011;6857;53.484;10.216;2022-11-04T09:22:34;5.30;;;4.37;;
13571;SDS011;6857;53.484;10.216;2022-11-04T09:25:00;5.37;;;4.00;;
13571;SDS011;6857;53.484;10.216;2022-11-04T09:27:26;5.77;;;3.53;;
13571;SDS011;6857;53.484;10.216;2022-11-04T09:29:51;4.97;;;3.50;;
13571;SDS011;6857;53.484;10.216;2022-11-04T09:32:17;3.57;;;2.93;;
13571;SDS011;6857;53.484;10.216;2022-11-04T09:34:42;3.73;;;3.40;;
13571;SDS011;6857;53.484;10.216;2022-11-04T09:37:08;3.70;;;3.10;;
13571;SDS011;6857;53.484;10.216;2022-11-04T09:39:33;4.10;;;3.20;;
13571;SDS011;6857;53.484;10.216;2022-11-04T09:47:20;4.13;;;3.37;;
13571;SDS011;6857;53.484;10.216;2022-11-04T09:49:47;3.50;;;3.20;;
13571;SDS011;6857;53.484;10.216;2022-11-04T09:52:17;5.53;;;3.10;;
13571;SDS011;6857;53.484;10.216;2022-11-04T09:57:28;3.47;;;2.60;;
13571;SDS011;6857;53.484;10.216;2022-11-04T09:59:54;2.93;;;2.70;;
13571;SDS011;6857;53.484;10.216;2022-11-04T10:02:28;3.30;;;2.47;;
13571;SDS011;6857;53.484;10.216;2022-11-04T10:05:21;4.50;;;2.77;;
13571;SDS011;6857;53.484;10.216;2022-11-04T10:13:24;3.60;;;2.77;;
13571;SDS011;6857;53.484;10.216;2022-11-04T10:16:54;3.30;;;2.80;;
13571;SDS011;6857;53.484;10.216;2022-11-04T10:24:17;3.43;;;2.63;;
13571;SDS011;6857;53.484;10.216;2022-11-04T10:26:44;3.20;;;2.83;;
13571;SDS011;6857;53.484;10.216;2022-11-04T10:32:03;3.80;;;2.97;;
13571;SDS011;6857;53.484;10.216;2022-11-04T10:34:36;3.40;;;3.10;;
13571;SDS011;6857;53.484;10.216;2022-11-04T10:37:10;3.70;;;2.90;;
13571;SDS011;6857;53.484;10.216;2022-11-04T10:39:38;9.57;;;5.93;;
13571;SDS011;6857;53.484;10.216;2022-11-04T10:42:10;4.40;;;3.30;;
13571;SDS011;6857;53.484;10.216;2022-11-04T10:44:46;3.53;;;3.10;;
13571;SDS011;6857;53.484;10.216;2022-11-04T10:52:49;3.67;;;2.97;;
13571;SDS011;6857;53.484;10.216;2022-11-04T10:57:57;5.47;;;3.33;;
13571;SDS011;6857;53.484;10.216;2022-11-04T11:00:36;4.53;;;3.73;;
13571;SDS011;6857;53.484;10.216;2022-11-04T11:06:13;6.23;;;4.10;;
13571;SDS011;6857;53.484;10.216;2022-11-04T11:08:44;4.93;;;3.67;;
13571;SDS011;6857;53.484;10.216;2022-11-04T11:11:11;4.00;;;3.13;;
13571;SDS011;6857;53.484;10.216;2022-11-04T11:13:39;3.73;;;3.43;;
13571;SDS011;6857;53.484;10.216;2022-11-04T11:16:39;4.30;;;3.90;;
13571;SDS011;6857;53.484;10.216;2022-11-04T11:21:55;4.83;;;3.57;;
13571;SDS011;6857;53.484;10.216;2022-11-04T11:24:23;5.43;;;3.40;;
13571;SDS011;6857;53.484;10.216;2022-11-04T11:26:54;3.60;;;2.77;;
13571;SDS011;6857;53.484;10.216;2022-11-04T11:31:50;3.53;;;2.93;;
13571;SDS011;6857;53.484;10.216;2022-11-04T11:34:19;3.53;;;3.03;;
13571;SDS011;6857;53.484;10.216;2022-11-04T11:36:50;4.33;;;2.80;;
13571;SDS011;6857;53.484;10.216;2022-11-04T11:39:18;3.87;;;3.40;;
13571;SDS011;6857;53.484;10.216;2022-11-04T11:44:24;5.43;;;4.63;;
13571;SDS011;6857;53.484;10.216;2022-11-04T11:47:02;4.63;;;2.80;;
13571;SDS011;6857;53.484;10.216;2022-11-04T11:49:30;3.13;;;2.67;;
13571;SDS011;6857;53.484;10.216;2022-11-04T11:52:42;3.10;;;2.50;;
13571;SDS011;6857;53.484;10.216;2022-11-04T11:55:35;3.00;;;2.30;;
13571;SDS011;6857;53.484;10.216;2022-11-04T11:57:42;3.50;;;1.97;;
13571;SDS011;6857;53.484;10.216;2022-11-04T12:00:27;3.47;;;1.80;;
13571;SDS011;6857;53.484;10.216;2022-11-04T12:05:53;3.43;;;2.20;;
13571;SDS011;6857;53.484;10.216;2022-11-04T12:11:13;3.17;;;2.10;;
13571;SDS011;6857;53.484;10.216;2022-11-04T12:13:55;4.30;;;2.10;;
13571;SDS011;6857;53.484;10.216;2022-11-04T12:19:23;2.20;;;2.00;;
13571;SDS011;6857;53.484;10.216;2022-11-04T12:22:08;2.73;;;1.63;;
13571;SDS011;6857;53.484;10.216;2022-11-04T12:27:51;3.57;;;1.80;;
13571;SDS011;6857;53.484;10.216;2022-11-04T12:36:35;3.03;;;1.53;;
13571;SDS011;6857;53.484;10.216;2022-11-04T12:41:49;2.80;;;1.30;;
13571;SDS011;6857;53.484;10.216;2022-11-04T12:44:26;4.60;;;1.30;;
13571;SDS011;6857;53.484;10.216;2022-11-04T12:46:56;2.77;;;1.43;;
13571;SDS011;6857;53.484;10.216;2022-11-04T13:00:33;3.83;;;1.00;;
13571;SDS011;6857;53.484;10.216;2022-11-04T13:11:14;2.73;;;0.97;;
13571;SDS011;6857;53.484;10.216;2022-11-04T13:14:08;5.27;;;1.00;;
13571;SDS011;6857;53.484;10.216;2022-11-04T13:16:40;3.60;;;0.80;;
13571;SDS011;6857;53.484;10.216;2022-11-04T13:19:19;4.53;;;1.10;;
13571;SDS011;6857;53.484;10.216;2022-11-04T13:21:55;4.67;;;1.00;;
13571;SDS011;6857;53.484;10.216;2022-11-04T13:26:54;1.93;;;0.93;;
13571;SDS011;6857;53.484;10.216;2022-11-04T13:29:26;3.17;;;0.60;;
13571;SDS011;6857;53.484;10.216;2022-11-04T13:37:32;4.87;;;1.40;;
13571;SDS011;6857;53.484;10.216;2022-11-04T13:40:12;4.10;;;1.20;;
13571;SDS011;6857;53.484;10.216;2022-11-04T13:42:52;6.87;;;0.87;;
13571;SDS011;6857;53.484;10.216;2022-11-04T13:45:50;3.77;;;1.13;;
13571;SDS011;6857;53.484;10.216;2022-11-04T13:48:18;2.50;;;1.10;;
13571;SDS011;6857;53.484;10.216;2022-11-04T13:50:55;5.10;;;1.40;;
13571;SDS011;6857;53.484;10.216;2022-11-04T13:53:41;3.83;;;1.10;;
13571;SDS011;6857;53.484;10.216;2022-11-04T13:56:08;3.87;;;1.17;;
13571;SDS011;6857;53.484;10.216;2022-11-04T13:58:50;6.17;;;1.33;;
13571;SDS011;6857;53.484;10.216;2022-11-04T14:04:01;3.50;;;1.10;;
13571;SDS011;6857;53.484;10.216;2022-11-04T14:22:54;2.23;;;0.97;;
13571;SDS011;6857;53.484;10.216;2022-11-04T14:27:59;4.90;;;1.40;;
13571;SDS011;6857;53.484;10.216;2022-11-04T14:30:27;4.97;;;1.27;;
13571;SDS011;6857;53.484;10.216;2022-11-04T14:32:59;3.40;;;1.20;;
13571;SDS011;6857;53.484;10.216;2022-11-04T14:35:28;2.97;;;1.37;;
13571;SDS011;6857;53.484;10.216;2022-11-04T14:37:54;6.27;;;1.40;;
13571;SDS011;6857;53.484;10.216;2022-11-04T14:40:23;8.77;;;1.50;;
13571;SDS011;6857;53.484;10.216;2022-11-04T14:42:53;5.27;;;1.30;;
13571;SDS011;6857;53.484;10.216;2022-11-04T14:45:24;4.90;;;1.30;;
13571;SDS011;6857;53.484;10.216;2022-11-04T14:47:54;2.83;;;1.00;;
13571;SDS011;6857;53.484;10.216;2022-11-04T14:50:37;3.93;;;1.00;;
13571;SDS011;6857;53.484;10.216;2022-11-04T14:53:08;3.00;;;0.90;;
13571;SDS011;6857;53.484;10.216;2022-11-04T14:55:43;5.40;;;1.27;;
13571;SDS011;6857;53.484;10.216;2022-11-04T14:58:24;3.77;;;1.30;;
13571;SDS011;6857;53.484;10.216;2022-11-04T15:00:52;5.17;;;1.70;;
13571;SDS011;6857;53.484;10.216;2022-11-04T15:05:58;2.90;;;1.07;;
13571;SDS011;6857;53.484;10.216;2022-11-04T15:08:36;6.63;;;1.10;;
13571;SDS011;6857;53.484;10.216;2022-11-04T15:13:46;3.73;;;1.10;;
13571;SDS011;6857;53.484;10.216;2022-11-04T15:16:15;4.90;;;1.20;;
13571;SDS011;6857;53.484;10.216;2022-11-04T15:18:47;3.67;;;1.23;;
13571;SDS011;6857;53.484;10.216;2022-11-04T15:21:13;3.30;;;0.97;;
13571;SDS011;6857;53.484;10.216;2022-11-04T15:23:43;4.03;;;1.07;;
13571;SDS011;6857;53.484;10.216;2022-11-04T15:28:59;5.33;;;1.13;;
13571;SDS011;6857;53.484;10.216;2022-11-04T15:31:31;4.13;;;0.90;;
13571;SDS011;6857;53.484;10.216;2022-11-04T15:33:58;4.93;;;1.07;;
13571;SDS011;6857;53.484;10.216;2022-11-04T15:36:27;5.10;;;1.40;;
13571;SDS011;6857;53.484;10.216;2022-11-04T15:38:59;3.73;;;1.60;;
13571;SDS011;6857;53.484;10.216;2022-11-04T15:41:29;3.40;;;1.23;;
13571;SDS011;6857;53.484;10.216;2022-11-04T15:44:16;4.37;;;1.53;;
13571;SDS011;6857;53.484;10.216;2022-11-04T15:46:48;7.83;;;1.90;;
13571;SDS011;6857;53.484;10.216;2022-11-04T15:49:23;5.33;;;1.50;;
13571;SDS011;6857;53.484;10.216;2022-11-04T15:51:54;4.07;;;1.63;;
13571;SDS011;6857;53.484;10.216;2022-11-04T15:54:25;4.50;;;1.70;;
13571;SDS011;6857;53.484;10.216;2022-11-04T15:56:54;4.37;;;2.37;;
13571;SDS011;6857;53.484;10.216;2022-11-04T15:59:31;4.47;;;2.20;;
13571;SDS011;6857;53.484;10.216;2022-11-04T16:02:00;6.30;;;2.33;;
13571;SDS011;6857;53.484;10.216;2022-11-04T16:04:28;4.13;;;1.73;;
13571;SDS011;6857;53.484;10.216;2022-11-04T16:07:19;4.67;;;2.07;;
13571;SDS011;6857;53.484;10.216;2022-11-04T16:09:51;5.90;;;2.13;;
13571;SDS011;6857;53.484;10.216;2022-11-04T16:14:57;4.70;;;1.70;;
13571;SDS011;6857;53.484;10.216;2022-11-04T16:17:24;6.37;;;1.57;;
13571;SDS011;6857;53.484;10.216;2022-11-04T16:19:52;3.60;;;1.50;;
13571;SDS011;6857;53.484;10.216;2022-11-04T16:22:44;4.37;;;1.60;;
13571;SDS011;6857;53.484;10.216;2022-11-04T16:25:17;3.77;;;2.07;;
13571;SDS011;6857;53.484;10.216;2022-11-04T16:27:45;6.03;;;2.40;;
13571;SDS011;6857;53.484;10.216;2022-11-04T16:30:21;7.27;;;2.60;;
13571;SDS011;6857;53.484;10.216;2022-11-04T16:32:52;6.40;;;2.63;;
13571;SDS011;6857;53.484;10.216;2022-11-04T16:37:50;13.30;;;6.87;;
13571;SDS011;6857;53.484;10.216;2022-11-04T16:40:17;7.23;;;3.87;;
13571;SDS011;6857;53.484;10.216;2022-11-04T16:42:44;4.93;;;2.80;;
13571;SDS011;6857;53.484;10.216;2022-11-04T16:45:44;5.67;;;2.67;;
13571;SDS011;6857;53.484;10.216;2022-11-04T16:48:02;4.73;;;2.57;;
13571;SDS011;6857;53.484;10.216;2022-11-04T16:50:28;6.83;;;3.20;;
13571;SDS011;6857;53.484;10.216;2022-11-04T16:52:57;3.30;;;1.97;;
13571;SDS011;6857;53.484;10.216;2022-11-04T16:55:25;5.37;;;2.43;;
13571;SDS011;6857;53.484;10.216;2022-11-04T16:58:01;6.77;;;2.87;;
13571;SDS011;6857;53.484;10.216;2022-11-04T17:00:31;6.20;;;2.47;;
13571;SDS011;6857;53.484;10.216;2022-11-04T17:02:58;6.87;;;3.07;;
13571;SDS011;6857;53.484;10.216;2022-11-04T17:05:24;7.37;;;2.50;;
13571;SDS011;6857;53.484;10.216;2022-11-04T17:07:50;5.03;;;2.23;;
13571;SDS011;6857;53.484;10.216;2022-11-04T17:10:20;5.23;;;2.27;;
13571;SDS011;6857;53.484;10.216;2022-11-04T17:12:47;3.87;;;2.10;;
13571;SDS011;6857;53.484;10.216;2022-11-04T17:15:13;6.03;;;2.30;;
13571;SDS011;6857;53.484;10.216;2022-11-04T17:17:40;6.93;;;2.30;;
13571;SDS011;6857;53.484;10.216;2022-11-04T17:20:06;4.33;;;2.40;;
13571;SDS011;6857;53.484;10.216;2022-11-04T17:22:36;4.73;;;2.47;;
13571;SDS011;6857;53.484;10.216;2022-11-04T17:25:02;4.90;;;2.40;;
13571;SDS011;6857;53.484;10.216;2022-11-04T17:27:29;6.93;;;2.60;;
13571;SDS011;6857;53.484;10.216;2022-11-04T17:29:54;6.23;;;3.10;;
13571;SDS011;6857;53.484;10.216;2022-11-04T17:32:20;7.97;;;3.03;;
13571;SDS011;6857;53.484;10.216;2022-11-04T17:34:45;7.03;;;2.90;;
13571;SDS011;6857;53.484;10.216;2022-11-04T17:37:11;9.30;;;3.77;;
13571;SDS011;6857;53.484;10.216;2022-11-04T17:39:38;6.63;;;3.50;;
13571;SDS011;6857;53.484;10.216;2022-11-04T17:42:04;7.60;;;3.70;;